This is the latest recevied weather packets stored in our database for station/object W4ZHA. If no packets are shown the sender has not sent any weather packets the latest 10 day(s).
| Time | Temp. | Humidity | Pressure | Rain* | Wind** | Luminosity | Snow |
|---|---|---|---|---|---|---|---|
| 1787858408 | 33.33° C | 47% | 1014.4 hPa | 0 mm | - | 167 W/m² | - |
| 1787858108 | 32.22° C | 53% | 1014.4 hPa | 0 mm | - | 524 W/m² | - |
| 1787857803 | 31.67° C | 53% | 1014.4 hPa | 0 mm | - | 498 W/m² | - |
| 1787857499 | 31.67° C | 52% | 1014.4 hPa | 0 mm | - | 109 W/m² | - |
| 1787857197 | 32.78° C | 53% | 1014.8 hPa | 0 mm | - | 126 W/m² | - |
| 1787856892 | 32.22° C | 48% | 1014.8 hPa | 0 mm | - | 479 W/m² | - |
| 1787856591 | 32.22° C | 50% | 1015.1 hPa | 0 mm | - | 139 W/m² | - |
| 1787856287 | 31.67° C | 53% | 1014.8 hPa | 0 mm | - | 515 W/m² | - |
| 1787855983 | 31.11° C | 54% | 1014.8 hPa | 0 mm | - | 149 W/m² | - |
| 1787855682 | 30.56° C | 55% | 1015.1 hPa | 0 mm | - | 104 W/m² | - |
| 1787855377 | 32.22° C | 52% | 1015.1 hPa | 0 mm | - | 117 W/m² | - |
| 1787855072 | 31.67° C | 54% | 1015.1 hPa | 0 mm | - | 423 W/m² | - |
| 1787854767 | 31.67° C | 55% | 1014.8 hPa | 0 mm | - | 481 W/m² | - |
| 1787854467 | 30.56° C | 56% | 1015.1 hPa | 0 mm | - | 484 W/m² | - |
| 1787854162 | 30.56° C | 56% | 1015.5 hPa | 0 mm | - | 158 W/m² | - |
| 1787853857 | 31.11° C | 54% | 1015.1 hPa | 0 mm | - | 172 W/m² | - |
| 1787853555 | 30.56° C | 56% | 1015.1 hPa | 0 mm | - | 153 W/m² | - |
| 1787853250 | 30.56° C | 56% | 1015.5 hPa | 0 mm | - | 484 W/m² | - |
| 1787852950 | 30.56° C | 56% | 1015.5 hPa | 0 mm | - | 461 W/m² | - |
| 1787852644 | 30.56° C | 56% | 1015.5 hPa | 0 mm | - | 465 W/m² | - |
| 1787852344 | 31.67° C | 54% | 1015.5 hPa | 0 mm | - | 463 W/m² | - |
| 1787852043 | 30.56° C | 57% | 1015.5 hPa | 0 mm | - | 461 W/m² | - |
| 1787851743 | 31.11° C | 56% | 1015.5 hPa | 0 mm | - | 444 W/m² | - |
| 1787851437 | 30.56° C | 56% | 1015.8 hPa | 0 mm | - | 374 W/m² | - |
| 1787851133 | 30.56° C | 56% | 1015.8 hPa | 0 mm | - | 445 W/m² | - |
* Rain latest hour (hover to see other rain measurements)
** Current wind speed in m/s (hover to see current wind gust speed)